createdAt,value
2019-04-19T00:01:52.228Z,57.10
2019-04-19T00:04:16.838Z,57.10
2019-04-19T00:06:46.744Z,57.20
2019-04-19T00:09:28.496Z,57.20
2019-04-19T00:11:58.438Z,57.40
2019-04-19T00:14:16.858Z,57.50
2019-04-19T00:16:45.371Z,57.40
2019-04-19T00:19:31.552Z,57.60
2019-04-19T00:22:08.604Z,57.70
2019-04-19T00:24:14.549Z,58.20
2019-04-19T00:26:44.242Z,58.50
2019-04-19T00:29:21.993Z,58.70
2019-04-19T00:32:02.229Z,58.80
2019-04-19T00:34:14.593Z,58.90
2019-04-19T00:36:44.392Z,59.00
2019-04-19T00:39:45.087Z,59.10
2019-04-19T00:42:35.402Z,59.40
2019-04-19T00:45:18.611Z,59.60
2019-04-19T00:47:43.526Z,59.70
2019-04-19T00:50:07.461Z,59.80
2019-04-19T00:52:42.206Z,59.80
2019-04-19T00:55:12.169Z,59.70
2019-04-19T00:57:38.229Z,59.60
2019-04-19T00:59:59.796Z,59.50
2019-04-19T01:02:28.316Z,59.50
2019-04-19T01:05:03.684Z,59.50
2019-04-19T01:07:32.809Z,59.10
2019-04-19T01:10:15.229Z,59.40
2019-04-19T01:12:45.050Z,59.50
2019-04-19T01:15:09.553Z,59.40
2019-04-19T01:17:47.615Z,59.50
2019-04-19T01:20:02.358Z,59.50
2019-04-19T01:22:31.184Z,59.60
2019-04-19T01:24:58.457Z,59.70
2019-04-19T01:27:29.477Z,59.70
2019-04-19T01:29:59.305Z,59.70
2019-04-19T01:32:28.016Z,60.10
2019-04-19T01:35:00.915Z,60.30
2019-04-19T01:37:28.344Z,60.40
2019-04-19T01:40:13.269Z,60.80
2019-04-19T01:42:44.118Z,61.10
2019-04-19T01:45:29.178Z,61.20
2019-04-19T01:48:13.208Z,61.30
2019-04-19T01:50:59.431Z,61.60
2019-04-19T01:53:29.218Z,61.50
2019-04-19T01:55:43.129Z,61.50
2019-04-19T01:58:16.081Z,61.60
2019-04-19T02:00:49.422Z,61.60
2019-04-19T02:03:12.624Z,61.70
2019-04-19T02:05:45.001Z,61.70
2019-04-19T02:08:14.338Z,61.90
2019-04-19T02:11:29.202Z,61.80
2019-04-19T02:13:59.157Z,62.00
2019-04-19T02:16:22.843Z,62.10
2019-04-19T02:18:47.873Z,62.10
2019-04-19T02:21:25.153Z,62.40
2019-04-19T02:23:51.412Z,62.60
2019-04-19T02:26:19.981Z,62.70
2019-04-19T02:28:47.388Z,62.90
2019-04-19T02:31:37.446Z,63.00
2019-04-19T02:34:21.212Z,63.30
2019-04-19T02:36:51.969Z,63.30
2019-04-19T02:39:21.226Z,63.60
2019-04-19T02:44:12.371Z,63.50
2019-04-19T02:46:55.860Z,63.70
2019-04-19T02:49:21.078Z,64.10
2019-04-19T02:51:50.259Z,64.10
2019-04-19T02:54:17.866Z,64.40
2019-04-19T03:02:32.130Z,65.10
2019-04-19T03:05:04.145Z,65.20
2019-04-19T03:06:56.105Z,65.00
2019-04-19T03:09:24.286Z,64.90
2019-04-19T03:12:06.109Z,64.90
2019-04-19T03:14:44.151Z,64.90
2019-04-19T03:17:11.329Z,65.20
2019-04-19T03:19:47.163Z,65.60
2019-04-19T03:22:15.087Z,65.70
2019-04-19T03:24:42.394Z,65.80
2019-04-19T03:27:04.714Z,66.10
2019-04-19T03:29:31.988Z,66.30
2019-04-19T03:32:35.701Z,66.50
2019-04-19T03:37:14.373Z,66.00
2019-04-19T03:39:44.610Z,66.30
2019-04-19T03:42:27.926Z,66.80
2019-04-19T03:44:42.845Z,67.10
2019-04-19T03:47:16.018Z,67.30
2019-04-19T03:49:45.118Z,67.90
2019-04-19T03:52:20.345Z,68.20
2019-04-19T03:54:43.974Z,68.40
2019-04-19T03:57:15.525Z,68.10
2019-04-19T03:59:31.598Z,68.30
2019-04-19T04:02:02.326Z,68.50
2019-04-19T04:04:33.653Z,68.60
2019-04-19T04:07:07.118Z,68.60
2019-04-19T04:09:41.744Z,68.40
2019-04-19T04:12:27.520Z,68.50
2019-04-19T04:15:02.692Z,68.50
2019-04-19T04:17:18.784Z,68.50
2019-04-19T04:19:48.315Z,68.60
2019-04-19T04:22:24.106Z,68.70
2019-04-19T04:24:58.650Z,68.80
2019-04-19T04:27:31.629Z,68.90
2019-04-19T04:30:00.317Z,68.70
2019-04-19T04:32:34.122Z,69.00
2019-04-19T04:35:02.043Z,69.00
2019-04-19T04:37:34.598Z,68.70
2019-04-19T04:39:49.733Z,68.90
2019-04-19T04:42:26.909Z,69.20
2019-04-19T04:45:15.299Z,69.30
2019-04-19T04:47:53.413Z,69.20
2019-04-19T04:50:51.229Z,69.20
2019-04-19T04:52:58.615Z,69.00
2019-04-19T04:55:44.990Z,69.20
2019-04-19T04:58:18.685Z,69.70
2019-04-19T05:00:47.271Z,70.00
2019-04-19T05:03:22.975Z,70.00
2019-04-19T05:05:55.357Z,70.50
2019-04-19T05:08:25.500Z,71.60
2019-04-19T05:10:57.306Z,71.90
2019-04-19T05:13:46.993Z,72.20
2019-04-19T05:15:58.089Z,72.30
2019-04-19T05:18:40.151Z,72.20
2019-04-19T05:20:50.827Z,72.10
2019-04-19T05:23:30.335Z,72.10
2019-04-19T05:26:04.766Z,72.20
2019-04-19T05:28:23.599Z,71.90
2019-04-19T05:30:49.290Z,72.00
2019-04-19T05:33:21.110Z,72.40
2019-04-19T05:36:04.639Z,72.40
2019-04-19T05:38:30.453Z,72.30
2019-04-19T05:40:59.056Z,72.20
2019-04-19T05:43:59.675Z,72.10
2019-04-19T05:46:19.084Z,72.20
2019-04-19T05:48:33.660Z,72.30
2019-04-19T05:51:23.844Z,72.10
2019-04-19T05:53:33.050Z,72.00
2019-04-19T05:55:54.380Z,71.90
2019-04-19T05:58:38.470Z,71.90
2019-04-19T06:01:08.115Z,71.70
2019-04-19T06:03:41.374Z,71.70
2019-04-19T06:06:33.783Z,71.40
2019-04-19T06:08:29.410Z,71.20
2019-04-19T06:10:59.235Z,71.00
2019-04-19T06:13:24.052Z,70.80
2019-04-19T06:16:12.831Z,70.80
2019-04-19T06:18:36.283Z,70.60
2019-04-19T06:21:17.186Z,70.20
2019-04-19T06:23:51.260Z,70.30
2019-04-19T06:26:42.153Z,70.40
2019-04-19T06:28:51.626Z,70.00
2019-04-19T06:31:24.189Z,69.70
2019-04-19T06:33:42.289Z,69.80
2019-04-19T06:36:01.008Z,69.70
2019-04-19T06:38:26.797Z,70.00
2019-04-19T06:41:03.377Z,70.00
2019-04-19T06:43:38.569Z,69.90
2019-04-19T06:46:10.563Z,69.70
2019-04-19T06:48:29.967Z,69.40
2019-04-19T06:51:01.879Z,68.90
2019-04-19T06:53:34.310Z,68.70
2019-04-19T06:56:05.875Z,68.70
2019-04-19T06:58:38.165Z,68.40
2019-04-19T07:01:11.693Z,67.90
2019-04-19T07:03:27.773Z,67.60
2019-04-19T07:06:14.239Z,67.50
2019-04-19T07:11:16.360Z,67.00
2019-04-19T07:13:38.504Z,66.50
2019-04-19T07:18:40.184Z,65.60
2019-04-19T07:21:19.947Z,65.10
2019-04-19T07:23:49.892Z,65.20
2019-04-19T07:26:20.362Z,65.00
2019-04-19T07:28:31.818Z,64.20
2019-04-19T07:31:02.957Z,64.30
2019-04-19T07:33:41.503Z,63.80
2019-04-19T07:36:19.193Z,62.60
2019-04-19T07:38:53.338Z,61.80
2019-04-19T07:41:16.615Z,61.90
2019-04-19T07:43:48.319Z,62.30
2019-04-19T07:46:26.536Z,61.80
2019-04-19T07:48:38.491Z,61.80
2019-04-19T07:51:13.495Z,60.20
2019-04-19T07:53:43.449Z,60.10
2019-04-19T07:56:17.553Z,60.10
2019-04-19T07:58:58.567Z,60.10
2019-04-19T08:04:24.078Z,59.90
2019-04-19T08:06:43.718Z,60.00
2019-04-19T08:09:02.281Z,59.90
2019-04-19T08:11:57.671Z,59.70
2019-04-19T08:14:16.830Z,59.10
2019-04-19T08:17:04.431Z,58.80
2019-04-19T08:28:51.596Z,58.80
2019-04-19T08:31:12.324Z,58.70
2019-04-19T08:33:41.673Z,58.20
2019-04-19T08:36:14.051Z,58.40
2019-04-19T08:39:05.384Z,58.10
2019-04-19T08:41:21.587Z,58.20
2019-04-19T08:43:59.550Z,58.70
2019-04-19T08:46:17.655Z,58.30
2019-04-19T08:49:06.235Z,57.90
2019-04-19T08:51:38.624Z,58.00
2019-04-19T08:54:28.720Z,57.60
2019-04-19T08:56:44.926Z,57.20
2019-04-19T08:59:34.938Z,57.00
2019-04-19T09:01:55.768Z,56.60
2019-04-19T09:04:26.955Z,57.20
2019-04-19T09:09:28.179Z,56.80
2019-04-19T09:11:57.405Z,56.80
2019-04-19T09:14:30.357Z,56.30
2019-04-19T09:17:04.906Z,57.00
2019-04-19T09:19:43.574Z,56.80
2019-04-19T09:21:52.021Z,55.80
2019-04-19T09:24:15.980Z,56.10
2019-04-19T09:26:58.971Z,57.00
2019-04-19T09:29:33.544Z,57.00
2019-04-19T09:31:51.640Z,57.00
2019-04-19T09:34:16.277Z,55.60
2019-04-19T09:36:51.964Z,55.30
2019-04-19T09:39:29.732Z,55.60
2019-04-19T09:41:46.616Z,55.70
2019-04-19T09:44:22.766Z,54.50
2019-04-19T09:46:42.580Z,54.30
2019-04-19T09:49:23.534Z,55.20
2019-04-19T09:51:55.364Z,56.10
2019-04-19T09:54:33.851Z,54.90
2019-04-19T09:56:57.987Z,54.40
2019-04-19T09:59:21.307Z,53.90
2019-04-19T10:01:49.689Z,53.80
2019-04-19T10:04:12.759Z,52.40
2019-04-19T10:06:42.722Z,51.80
2019-04-19T10:09:18.777Z,52.50
2019-04-19T10:11:46.406Z,52.60
2019-04-19T10:14:15.170Z,52.30
2019-04-19T10:16:54.813Z,53.60
2019-04-19T10:19:24.573Z,52.10
2019-04-19T10:21:54.767Z,51.20
2019-04-19T10:24:24.257Z,50.90
2019-04-19T10:26:54.865Z,49.10
2019-04-19T10:29:29.775Z,49.80
2019-04-19T10:32:02.137Z,49.90
2019-04-19T10:34:30.671Z,49.20
2019-04-19T10:37:00.266Z,49.10
2019-04-19T10:39:29.960Z,48.70
2019-04-19T10:41:59.096Z,49.00
2019-04-19T10:44:27.678Z,48.60
2019-04-19T10:46:56.598Z,47.70
2019-04-19T10:49:33.390Z,47.00
2019-04-19T10:52:00.636Z,46.70
2019-04-19T10:54:29.217Z,48.20
2019-04-19T10:57:02.279Z,46.90
2019-04-19T10:59:32.182Z,46.60
2019-04-19T11:02:02.007Z,45.80
2019-04-19T11:04:31.125Z,45.70
2019-04-19T11:07:00.898Z,45.90
2019-04-19T11:09:29.322Z,45.60
2019-04-19T11:11:58.109Z,45.00
2019-04-19T11:14:26.694Z,44.20
2019-04-19T11:16:55.685Z,44.90
2019-04-19T11:19:43.418Z,43.60
2019-04-19T11:21:55.918Z,44.40
2019-04-19T11:24:25.530Z,44.40
2019-04-19T11:26:55.081Z,44.20
2019-04-19T11:29:23.996Z,43.30
2019-04-19T11:32:00.079Z,42.80
2019-04-19T11:34:31.244Z,42.00
2019-04-19T11:37:00.075Z,42.20
2019-04-19T11:39:28.645Z,40.70
2019-04-19T11:41:57.160Z,41.30
2019-04-19T11:44:27.449Z,40.80
2019-04-19T11:46:56.197Z,40.40
2019-04-19T11:49:32.217Z,41.00
2019-04-19T11:51:55.333Z,40.50
2019-04-19T11:54:24.216Z,39.70
2019-04-19T11:57:10.888Z,39.20
2019-04-19T11:59:50.817Z,38.40
2019-04-19T12:02:22.761Z,39.20
2019-04-19T12:04:52.357Z,37.80
2019-04-19T12:07:20.966Z,37.70
2019-04-19T12:09:50.318Z,38.80
2019-04-19T12:12:19.228Z,39.40
2019-04-19T12:14:48.599Z,38.00
2019-04-19T12:17:18.291Z,37.70
2019-04-19T12:19:52.945Z,37.50
2019-04-19T12:22:17.226Z,38.50
2019-04-19T12:24:52.055Z,37.80
2019-04-19T12:27:18.931Z,37.80
2019-04-19T12:29:49.543Z,37.00
2019-04-19T12:32:17.508Z,36.50
2019-04-19T12:34:47.173Z,37.10
2019-04-19T12:37:15.748Z,36.60
2019-04-19T12:39:45.174Z,36.30
2019-04-19T12:42:15.722Z,35.60
2019-04-19T12:44:44.188Z,34.70
2019-04-19T12:47:13.050Z,35.70
2019-04-19T12:49:50.971Z,34.10
2019-04-19T12:52:12.354Z,35.20
2019-04-19T12:54:41.745Z,33.90
2019-04-19T12:57:10.376Z,34.40
2019-04-19T12:59:39.997Z,34.70
2019-04-19T13:02:11.657Z,33.80
2019-04-19T13:04:42.336Z,34.00
2019-04-19T13:07:13.102Z,32.00
2019-04-19T13:09:42.336Z,31.50
2019-04-19T13:12:10.918Z,31.60
2019-04-19T13:14:39.704Z,32.00
2019-04-19T13:17:08.411Z,31.00
2019-04-19T13:19:37.503Z,30.20
2019-04-19T13:22:06.062Z,30.50
2019-04-19T13:24:34.487Z,29.60
2019-04-19T13:27:03.353Z,30.00
2019-04-19T13:29:31.846Z,30.10
2019-04-19T13:32:01.545Z,30.40
2019-04-19T13:34:31.425Z,29.90
2019-04-19T13:37:05.198Z,29.50
2019-04-19T13:39:52.208Z,29.10
2019-04-19T13:42:23.046Z,29.70
2019-04-19T13:44:52.623Z,29.90
2019-04-19T13:47:22.334Z,29.40
2019-04-19T13:49:53.274Z,28.40
2019-04-19T13:52:21.265Z,28.70
2019-04-19T13:54:50.493Z,28.10
2019-04-19T13:57:19.689Z,28.00
2019-04-19T13:59:56.516Z,27.50
2019-04-19T14:02:20.552Z,27.60
2019-04-19T14:04:49.885Z,27.90
2019-04-19T14:07:19.055Z,27.60
2019-04-19T14:09:47.738Z,28.00
2019-04-19T14:12:16.267Z,27.30
2019-04-19T14:14:45.129Z,27.60
2019-04-19T14:17:13.886Z,27.40
2019-04-19T14:19:42.871Z,26.80
2019-04-19T14:22:11.375Z,26.90
2019-04-19T14:24:39.834Z,27.10
2019-04-19T14:27:09.286Z,27.30
2019-04-19T14:29:37.817Z,26.80
2019-04-19T14:32:07.289Z,26.40
2019-04-19T14:34:35.776Z,26.80
2019-04-19T14:37:05.137Z,26.30
2019-04-19T14:39:34.445Z,26.20
2019-04-19T14:42:03.496Z,26.60
2019-04-19T14:44:33.532Z,25.80
2019-04-19T14:47:03.149Z,25.70
2019-04-19T14:49:32.735Z,26.00
2019-04-19T14:52:01.433Z,26.00
2019-04-19T14:54:30.033Z,25.50
2019-04-19T14:56:58.767Z,25.30
2019-04-19T14:59:27.330Z,25.20
2019-04-19T15:02:06.987Z,25.50
2019-04-19T15:04:46.896Z,25.60
2019-04-19T15:07:16.611Z,26.10
2019-04-19T15:09:45.914Z,26.00
2019-04-19T15:12:14.406Z,25.60
2019-04-19T15:14:42.849Z,26.30
2019-04-19T15:17:11.601Z,26.10
2019-04-19T15:19:40.132Z,26.00
2019-04-19T15:22:08.706Z,26.00
2019-04-19T15:24:37.289Z,26.40
2019-04-19T15:27:08.177Z,26.30
2019-04-19T15:29:36.945Z,26.20
2019-04-19T15:32:06.335Z,26.70
2019-04-19T15:34:35.933Z,27.00
2019-04-19T15:37:04.497Z,27.30
2019-04-19T15:39:33.747Z,27.60
2019-04-19T15:42:02.479Z,27.50
2019-04-19T15:44:30.992Z,27.80
2019-04-19T15:46:59.956Z,28.00
2019-04-19T15:49:28.457Z,28.00
2019-04-19T15:51:59.816Z,27.80
2019-04-19T15:54:28.022Z,27.80
2019-04-19T15:56:56.659Z,27.90
2019-04-19T15:59:27.198Z,28.40
2019-04-19T16:02:04.033Z,29.00
2019-04-19T16:04:52.279Z,28.80
2019-04-19T16:07:22.461Z,28.90
2019-04-19T16:10:07.087Z,28.70
2019-04-19T16:12:35.980Z,28.60
2019-04-19T16:15:06.603Z,28.60
2019-04-19T16:17:35.061Z,28.80
2019-04-19T16:20:07.310Z,28.90
2019-04-19T16:22:36.280Z,29.20
2019-04-19T16:25:07.378Z,29.10
2019-04-19T16:27:35.944Z,29.10
2019-04-19T16:30:06.058Z,29.20
2019-04-19T16:32:35.045Z,29.30
2019-04-19T16:35:05.571Z,29.60
2019-04-19T16:37:34.966Z,29.90
2019-04-19T16:40:04.318Z,29.50
2019-04-19T16:42:32.798Z,29.70
2019-04-19T16:45:01.875Z,29.90
2019-04-19T16:47:31.231Z,29.80
2019-04-19T16:50:00.563Z,29.90
2019-04-19T16:52:29.096Z,29.90
2019-04-19T16:55:00.324Z,30.00
2019-04-19T16:57:30.358Z,30.20
2019-04-19T16:59:57.934Z,30.70
2019-04-19T17:02:26.979Z,30.20
2019-04-19T17:04:56.655Z,30.30
2019-04-19T17:07:25.246Z,30.00
2019-04-19T17:09:53.902Z,30.00
2019-04-19T17:12:22.381Z,30.20
2019-04-19T17:14:52.816Z,30.20
2019-04-19T17:17:38.981Z,30.50
2019-04-19T17:20:09.306Z,30.90
2019-04-19T17:22:39.066Z,30.90
2019-04-19T17:25:10.993Z,30.50
2019-04-19T17:27:41.089Z,30.30
2019-04-19T17:30:12.723Z,30.80
2019-04-19T17:32:42.023Z,31.00
2019-04-19T17:35:14.282Z,30.80
2019-04-19T17:37:44.985Z,30.70
2019-04-19T17:40:14.548Z,30.80
2019-04-19T17:42:44.452Z,31.00
2019-04-19T17:45:13.680Z,31.30
2019-04-19T17:47:43.732Z,31.90
2019-04-19T17:50:14.436Z,31.40
2019-04-19T17:52:42.942Z,31.30
2019-04-19T17:55:20.392Z,30.90
2019-04-19T17:57:42.920Z,31.20
2019-04-19T18:00:12.338Z,31.40
2019-04-19T18:02:41.280Z,31.60
2019-04-19T18:05:10.173Z,31.80
2019-04-19T18:07:43.850Z,31.90
2019-04-19T18:10:13.524Z,32.60
2019-04-19T18:12:39.349Z,32.20
2019-04-19T18:15:11.879Z,32.20
2019-04-19T18:17:40.478Z,32.20
2019-04-19T18:20:14.029Z,32.50
2019-04-19T18:22:55.434Z,32.80
2019-04-19T18:25:10.739Z,32.70
2019-04-19T18:27:46.113Z,32.60
2019-04-19T18:30:11.755Z,32.60
2019-04-19T18:32:54.256Z,33.00
2019-04-19T18:35:28.845Z,33.30
2019-04-19T18:37:53.332Z,33.70
2019-04-19T18:40:22.043Z,33.60
2019-04-19T18:43:06.693Z,34.40
2019-04-19T18:45:25.047Z,34.70
2019-04-19T18:47:51.086Z,35.80
2019-04-19T18:50:20.597Z,36.00
2019-04-19T18:52:53.494Z,36.10
2019-04-19T18:55:27.557Z,36.40
2019-04-19T18:57:49.816Z,36.60
2019-04-19T19:00:18.853Z,36.90
2019-04-19T19:02:54.075Z,37.20
2019-04-19T19:05:18.259Z,37.50
2019-04-19T19:07:49.369Z,37.60
2019-04-19T19:10:24.490Z,37.80
2019-04-19T19:12:49.616Z,38.10
2019-04-19T19:15:18.682Z,38.40
2019-04-19T19:17:52.925Z,37.40
2019-04-19T19:20:22.269Z,37.00
2019-04-19T19:23:05.489Z,36.60
2019-04-19T19:25:34.381Z,36.90
2019-04-19T19:27:48.776Z,36.70
2019-04-19T19:30:20.645Z,36.50
2019-04-19T19:32:55.068Z,36.20
2019-04-19T19:35:23.134Z,36.10
2019-04-19T19:37:50.858Z,35.90
2019-04-19T19:40:29.569Z,35.90
2019-04-19T19:43:08.769Z,35.90
2019-04-19T19:45:36.352Z,36.10
2019-04-19T19:48:19.780Z,36.40
2019-04-19T19:50:51.811Z,36.30
2019-04-19T19:53:25.619Z,36.30
2019-04-19T19:55:53.193Z,36.40
2019-04-19T19:58:05.881Z,36.60
2019-04-19T20:00:37.976Z,37.10
2019-04-19T20:03:08.958Z,36.70
2019-04-19T20:05:34.394Z,36.90
2019-04-19T20:08:00.118Z,36.90
2019-04-19T20:10:36.118Z,36.70
2019-04-19T20:13:02.629Z,37.10
2019-04-19T20:15:33.847Z,37.30
2019-04-19T20:18:01.410Z,37.70
2019-04-19T20:20:34.213Z,37.90
2019-04-19T20:23:00.294Z,37.70
2019-04-19T20:25:38.397Z,37.80
2019-04-19T20:27:59.515Z,38.00
2019-04-19T20:30:36.402Z,38.40
2019-04-19T20:33:02.556Z,38.20
2019-04-19T20:35:29.971Z,38.50
2019-04-19T20:38:01.619Z,38.60
2019-04-19T20:40:30.867Z,38.80
2019-04-19T20:43:20.771Z,39.40
2019-04-19T20:45:38.899Z,39.20
2019-04-19T20:48:07.970Z,39.20
2019-04-19T20:50:44.924Z,39.30
2019-04-19T20:53:13.781Z,39.00
2019-04-19T20:55:55.532Z,39.40
2019-04-19T20:58:24.059Z,39.50
2019-04-19T21:00:42.389Z,39.90
2019-04-19T21:03:11.053Z,40.00
2019-04-19T21:05:43.297Z,40.50
2019-04-19T21:08:12.655Z,40.70
2019-04-19T21:10:49.909Z,40.80
2019-04-19T21:13:12.824Z,41.20
2019-04-19T21:15:41.644Z,41.60
2019-04-19T21:18:19.073Z,41.60
2019-04-19T21:20:40.949Z,42.20
2019-04-19T21:23:16.192Z,42.30
2019-04-19T21:25:46.516Z,42.40
2019-04-19T21:28:10.554Z,42.60
2019-04-19T21:30:45.043Z,42.90
2019-04-19T21:33:13.418Z,43.30
2019-04-19T21:35:49.588Z,43.50
2019-04-19T21:38:14.572Z,43.80
2019-04-19T21:40:43.087Z,44.20
2019-04-19T21:43:11.233Z,44.30
2019-04-19T21:45:43.212Z,44.80
2019-04-19T21:48:10.991Z,44.80
2019-04-19T21:50:43.793Z,44.50
2019-04-19T21:53:11.157Z,44.90
2019-04-19T21:55:42.691Z,44.80
2019-04-19T21:58:13.490Z,45.30
2019-04-19T22:00:54.494Z,45.50
2019-04-19T22:03:21.280Z,45.50
2019-04-19T22:05:47.443Z,46.00
2019-04-19T22:08:24.775Z,46.00
2019-04-19T22:10:48.528Z,46.10
2019-04-19T22:13:16.745Z,46.20
2019-04-19T22:15:52.102Z,46.50
2019-04-19T22:18:15.445Z,46.50
2019-04-19T22:20:45.997Z,46.40
2019-04-19T22:23:16.183Z,46.30
2019-04-19T22:25:52.566Z,46.60
2019-04-19T22:28:15.279Z,46.70
2019-04-19T22:30:49.676Z,46.50
2019-04-19T22:33:14.408Z,46.50
2019-04-19T22:35:46.961Z,46.70
2019-04-19T22:38:17.910Z,47.20
2019-04-19T22:40:43.447Z,47.20
2019-04-19T22:43:14.661Z,47.00
2019-04-19T22:45:42.422Z,47.50
2019-04-19T22:48:16.368Z,47.50
2019-04-19T22:50:42.391Z,48.10
2019-04-19T22:53:10.927Z,48.10
2019-04-19T22:55:48.437Z,48.80
2019-04-19T22:58:16.473Z,48.90
2019-04-19T23:00:42.207Z,48.80
2019-04-19T23:03:25.371Z,49.00
2019-04-19T23:05:47.054Z,49.50
2019-04-19T23:08:17.377Z,49.70
2019-04-19T23:10:52.075Z,49.90
2019-04-19T23:13:23.192Z,50.10
2019-04-19T23:15:57.222Z,50.30
2019-04-19T23:18:24.850Z,50.50
2019-04-19T23:20:55.738Z,50.70
2019-04-19T23:23:25.537Z,50.90
2019-04-19T23:26:08.908Z,51.20
2019-04-19T23:28:28.263Z,51.90
2019-04-19T23:31:00.274Z,52.30
2019-04-19T23:33:24.478Z,51.90
2019-04-19T23:35:53.348Z,52.10
2019-04-19T23:38:25.358Z,52.70
2019-04-19T23:40:53.118Z,52.50
2019-04-19T23:43:27.670Z,52.70
2019-04-19T23:45:52.975Z,53.10
2019-04-19T23:48:26.421Z,53.40
2019-04-19T23:50:52.387Z,53.90
2019-04-19T23:53:23.242Z,54.20
2019-04-19T23:55:51.008Z,54.20
2019-04-19T23:58:28.191Z,54.10
